Time;durP1;ratioP1;P1;durP2;ratioP2;P2;SDS_P1;SDS_P2;PMS_P1;PMS_P2;Temp;Humidity;BMP_temperature;BMP_pressure;BME280_temperature;BME280_humidity;BME280_pressure;Samples;Min_cycle;Max_cycle;Signal;HPM_P1;HPM_P2
2022/07/15 00:00:28;;;;;;;;;;;;;;;17.91;51.66;101651.81;5009926;28;19924;-79
2022/07/15 00:02:53;;;;;;;;;;;;;;;17.94;51.23;101643.81;5008929;28;19921;-79
2022/07/15 00:05:20;;;;;;;;;;;;;;;17.91;51.29;101637.81;4999739;28;20208;-79
2022/07/15 00:07:46;;;;;;;;;;;;;;;17.98;51.50;101642.75;5012129;28;19922;-79
2022/07/15 00:10:14;;;;;;;;;;;;;;;17.90;51.60;101641.34;5008796;28;19929;-79
2022/07/15 00:12:44;;;;;;;;;;;;;;;17.93;51.83;101646.50;5008977;28;20008;-79
2022/07/15 00:15:09;;;;;;;;;;;;;;;17.85;52.07;101646.78;5006656;28;20309;-79
2022/07/15 00:17:35;;;;;;;;;;;;;;;17.84;52.15;101633.69;5007585;28;19978;-79
2022/07/15 00:20:00;;;;;;;;;;;;;;;17.82;52.48;101641.66;5002865;28;20414;-79
2022/07/15 00:22:25;;;;;;;;;;;;;;;17.86;52.34;101639.72;5010801;28;20372;-79
2022/07/15 00:24:51;;;;;;;;;;;;;;;17.82;52.22;101638.16;5010940;28;19987;-79
2022/07/15 00:27:16;;;;;;;;;;;;;;;17.91;51.66;101641.31;5008199;28;20300;-79
2022/07/15 00:29:42;;;;;;;;;;;;;;;17.77;52.58;101648.00;5006758;28;19990;-79
2022/07/15 00:32:07;;;;;;;;;;;;;;;17.75;52.52;101648.03;5007054;28;20344;-79
2022/07/15 00:34:32;;;;;;;;;;;;;;;17.64;53.00;101646.72;5009963;28;20451;-79
2022/07/15 00:36:58;;;;;;;;;;;;;;;17.78;52.19;101639.16;5008646;28;19925;-79
2022/07/15 00:39:23;;;;;;;;;;;;;;;17.62;52.86;101645.91;5008517;28;20520;-79
2022/07/15 00:41:48;;;;;;;;;;;;;;;17.58;53.31;101640.75;5006950;28;19926;-79
2022/07/15 00:44:14;;;;;;;;;;;;;;;17.67;53.02;101643.97;5006981;28;20347;-79
2022/07/15 00:46:39;;;;;;;;;;;;;;;17.69;53.31;101642.13;5003425;28;19926;-79
2022/07/15 00:49:06;;;;;;;;;;;;;;;17.64;53.75;101647.56;5008945;28;20304;-79
2022/07/15 00:51:35;;;;;;;;;;;;;;;17.61;53.38;101645.06;5009990;28;19921;-79
2022/07/15 00:54:02;;;;;;;;;;;;;;;17.54;53.74;101640.88;5007413;28;19925;-79
2022/07/15 00:56:28;;;;;;;;;;;;;;;17.60;53.66;101644.19;5008894;28;19918;-79
2022/07/15 00:58:53;;;;;;;;;;;;;;;17.48;53.79;101639.34;5008197;28;19991;-79
2022/07/15 01:01:19;;;;;;;;;;;;;;;17.39;54.34;101644.91;5008818;28;19926;-79
2022/07/15 01:03:47;;;;;;;;;;;;;;;17.48;53.83;101635.84;5006456;28;20304;-78
2022/07/15 01:06:12;;;;;;;;;;;;;;;17.46;54.16;101642.94;5008717;28;19964;-78
2022/07/15 01:08:37;;;;;;;;;;;;;;;17.40;54.16;101648.41;5007863;28;19965;-79
2022/07/15 01:11:04;;;;;;;;;;;;;;;17.33;54.57;101633.75;5004795;28;19929;-79
2022/07/15 01:13:29;;;;;;;;;;;;;;;17.29;55.00;101634.81;5008755;28;20385;-79
2022/07/15 01:15:56;;;;;;;;;;;;;;;17.39;54.95;101650.16;5006018;28;20416;-79
2022/07/15 01:18:21;;;;;;;;;;;;;;;17.07;56.81;101645.19;5013447;28;20039;-79
2022/07/15 01:20:47;;;;;;;;;;;;;;;16.91;57.39;101649.22;5008995;28;20020;-78
2022/07/15 01:23:13;;;;;;;;;;;;;;;17.15;56.11;101643.13;5007315;28;19926;-78
2022/07/15 01:25:39;;;;;;;;;;;;;;;16.90;57.01;101644.91;5007411;28;19950;-79
2022/07/15 01:28:05;;;;;;;;;;;;;;;17.02;56.83;101652.34;5009731;28;19965;-78
2022/07/15 01:30:30;;;;;;;;;;;;;;;17.05;56.39;101652.25;5007532;28;20014;-78
2022/07/15 01:32:56;;;;;;;;;;;;;;;17.14;56.00;101654.56;5009485;28;20376;-78
2022/07/15 01:35:21;;;;;;;;;;;;;;;17.06;56.04;101649.56;4996374;28;19926;-79
2022/07/15 01:37:46;;;;;;;;;;;;;;;17.05;56.38;101657.50;4994283;28;19925;-79
2022/07/15 01:40:12;;;;;;;;;;;;;;;17.04;56.54;101655.78;5007073;28;19917;-79
2022/07/15 01:42:38;;;;;;;;;;;;;;;17.08;56.11;101655.59;5011426;28;20308;-79
2022/07/15 01:45:04;;;;;;;;;;;;;;;17.14;55.88;101662.44;5008411;28;19963;-78
2022/07/15 01:47:29;;;;;;;;;;;;;;;17.13;55.98;101655.47;5007626;28;19921;-79
2022/07/15 01:49:54;;;;;;;;;;;;;;;17.11;56.23;101659.94;5010815;28;19922;-79
2022/07/15 01:52:20;;;;;;;;;;;;;;;17.05;56.56;101658.38;5007319;28;19925;-79
2022/07/15 01:54:45;;;;;;;;;;;;;;;17.22;55.97;101660.41;5006771;28;19929;-79
2022/07/15 01:57:10;;;;;;;;;;;;;;;17.21;56.18;101658.69;5006991;28;19921;-79
2022/07/15 01:59:36;;;;;;;;;;;;;;;17.17;56.29;101666.72;5009441;28;19924;-79
2022/07/15 02:02:01;;;;;;;;;;;;;;;17.28;55.91;101664.59;5005209;28;20008;-79
2022/07/15 02:04:26;;;;;;;;;;;;;;;17.16;56.18;101665.00;5006548;28;20364;-79
2022/07/15 02:06:52;;;;;;;;;;;;;;;17.25;56.20;101669.94;5004618;28;19921;-80
2022/07/15 02:09:17;;;;;;;;;;;;;;;17.26;56.31;101664.66;4999687;28;19918;-78
2022/07/15 02:11:43;;;;;;;;;;;;;;;17.17;56.86;101669.34;5004121;28;20490;-77
2022/07/15 02:14:08;;;;;;;;;;;;;;;17.22;56.10;101675.31;5007091;28;19933;-78
2022/07/15 02:16:35;;;;;;;;;;;;;;;17.21;56.41;101668.31;5008063;28;19922;-78
2022/07/15 02:19:00;;;;;;;;;;;;;;;17.25;56.46;101662.94;5007460;28;19932;-78
2022/07/15 02:21:26;;;;;;;;;;;;;;;17.30;56.15;101662.75;4986619;28;19925;-77
2022/07/15 02:23:52;;;;;;;;;;;;;;;17.28;56.58;101669.84;5002408;28;19930;-77
2022/07/15 02:26:18;;;;;;;;;;;;;;;17.17;56.52;101672.84;5008061;28;19924;-78
2022/07/15 02:28:43;;;;;;;;;;;;;;;17.31;56.46;101672.38;5008373;28;19922;-79
2022/07/15 02:31:08;;;;;;;;;;;;;;;17.21;56.30;101668.31;5004688;28;20002;-79
2022/07/15 02:33:34;;;;;;;;;;;;;;;17.18;56.36;101673.69;5008761;28;19927;-78
2022/07/15 02:35:59;;;;;;;;;;;;;;;17.23;56.24;101679.66;5003259;28;20522;-78
2022/07/15 02:38:24;;;;;;;;;;;;;;;17.29;56.29;101676.81;4990519;28;20337;-79
2022/07/15 02:40:50;;;;;;;;;;;;;;;17.27;56.28;101676.84;4987562;28;20431;-79
2022/07/15 02:43:15;;;;;;;;;;;;;;;17.21;56.44;101681.44;4987257;28;20447;-79
2022/07/15 02:45:41;;;;;;;;;;;;;;;17.27;55.92;101676.84;4985934;28;20397;-79
2022/07/15 02:48:06;;;;;;;;;;;;;;;17.24;56.13;101676.09;4985877;28;19960;-79
2022/07/15 02:50:32;;;;;;;;;;;;;;;17.24;56.08;101678.72;4984093;28;19957;-79
2022/07/15 02:52:57;;;;;;;;;;;;;;;17.05;56.14;101681.13;4986708;28;19932;-79
2022/07/15 02:55:23;;;;;;;;;;;;;;;17.16;55.90;101683.38;4988759;28;20013;-79
2022/07/15 02:57:48;;;;;;;;;;;;;;;17.23;55.64;101684.91;4985919;28;20199;-79
2022/07/15 03:00:16;;;;;;;;;;;;;;;17.06;55.83;101683.69;5009530;28;19964;-78
2022/07/15 03:02:41;;;;;;;;;;;;;;;17.19;55.69;101692.03;5007473;28;20075;-78
2022/07/15 03:05:07;;;;;;;;;;;;;;;17.18;55.75;101698.19;5008657;28;20590;-78
2022/07/15 03:07:32;;;;;;;;;;;;;;;17.10;55.78;101701.97;4996597;28;20359;-79
2022/07/15 03:09:57;;;;;;;;;;;;;;;17.13;55.47;101699.25;4990745;28;19922;-78
2022/07/15 03:12:23;;;;;;;;;;;;;;;17.03;55.26;101699.53;5008145;28;20017;-78
2022/07/15 03:14:48;;;;;;;;;;;;;;;16.93;55.28;101699.91;5007929;28;19925;-78
2022/07/15 03:17:15;;;;;;;;;;;;;;;17.07;54.65;101697.69;5006284;28;20052;-77
2022/07/15 03:19:40;;;;;;;;;;;;;;;17.03;55.17;101696.91;5008032;28;20067;-77
2022/07/15 03:22:06;;;;;;;;;;;;;;;17.07;54.82;101702.94;5009234;28;20019;-78
2022/07/15 03:24:32;;;;;;;;;;;;;;;17.12;54.48;101711.50;5008659;28;19914;-77
2022/07/15 03:26:57;;;;;;;;;;;;;;;17.06;53.82;101706.47;5005978;28;19918;-77
2022/07/15 03:29:22;;;;;;;;;;;;;;;17.13;53.47;101707.97;5007633;28;19933;-77
2022/07/15 03:31:48;;;;;;;;;;;;;;;17.04;53.83;101708.28;5008063;28;19976;-77
2022/07/15 03:34:14;;;;;;;;;;;;;;;16.97;52.74;101714.63;5006748;28;19932;-78
2022/07/15 03:36:39;;;;;;;;;;;;;;;17.10;52.22;101718.59;5002554;28;20577;-78
2022/07/15 03:39:05;;;;;;;;;;;;;;;17.02;52.78;101721.47;5005271;28;19925;-77
2022/07/15 03:41:30;;;;;;;;;;;;;;;17.02;52.14;101726.72;5005807;28;20415;-77
2022/07/15 03:43:56;;;;;;;;;;;;;;;17.03;53.05;101730.19;5006123;28;19983;-77
2022/07/15 03:46:21;;;;;;;;;;;;;;;16.97;52.34;101735.63;5005197;28;19925;-78
2022/07/15 03:48:46;;;;;;;;;;;;;;;16.85;53.03;101739.50;5008735;28;20396;-78
2022/07/15 03:51:12;;;;;;;;;;;;;;;16.98;52.88;101742.59;5010644;28;20553;-78
2022/07/15 03:53:37;;;;;;;;;;;;;;;17.08;51.91;101744.03;5008489;28;20407;-78
2022/07/15 03:56:02;;;;;;;;;;;;;;;17.12;52.17;101736.91;5001764;28;19996;-77
2022/07/15 03:58:28;;;;;;;;;;;;;;;17.08;53.01;101748.41;5004969;28;19926;-77
2022/07/15 04:00:53;;;;;;;;;;;;;;;17.00;52.74;101751.28;5003540;28;20016;-78
2022/07/15 04:03:18;;;;;;;;;;;;;;;16.95;53.01;101748.81;5003196;28;20028;-77
2022/07/15 04:05:44;;;;;;;;;;;;;;;17.01;52.63;101748.63;5005137;28;19921;-76
2022/07/15 04:08:09;;;;;;;;;;;;;;;16.97;52.76;101749.63;5009923;28;19987;-77
2022/07/15 04:10:35;;;;;;;;;;;;;;;17.06;52.19;101766.84;5004526;28;19921;-77
2022/07/15 04:13:00;;;;;;;;;;;;;;;17.06;53.21;101764.22;5007011;28;19917;-77
2022/07/15 04:15:26;;;;;;;;;;;;;;;17.07;53.31;101763.31;5007328;28;20469;-77
2022/07/15 04:17:51;;;;;;;;;;;;;;;16.96;53.50;101760.19;5006233;28;20416;-77
2022/07/15 04:20:16;;;;;;;;;;;;;;;17.12;52.88;101760.53;5008856;28;19949;-77
2022/07/15 04:22:42;;;;;;;;;;;;;;;17.03;53.68;101756.44;5006116;28;19926;-77
2022/07/15 04:25:08;;;;;;;;;;;;;;;17.02;53.86;101768.72;5005508;28;20007;-78
2022/07/15 04:27:34;;;;;;;;;;;;;;;17.05;53.47;101768.63;5004506;28;19991;-77
2022/07/15 04:29:59;;;;;;;;;;;;;;;17.12;53.28;101765.78;5006812;28;19984;-77
2022/07/15 04:32:26;;;;;;;;;;;;;;;17.16;53.44;101768.28;5004704;28;19992;-77
2022/07/15 04:34:52;;;;;;;;;;;;;;;17.14;53.43;101769.22;5006818;28;20415;-78
2022/07/15 04:37:17;;;;;;;;;;;;;;;17.15;53.93;101770.94;5005004;28;19956;-77
2022/07/15 04:39:42;;;;;;;;;;;;;;;17.13;54.81;101776.25;5006624;28;20400;-80
2022/07/15 04:42:08;;;;;;;;;;;;;;;17.10;54.64;101776.34;5007894;28;19922;-80
2022/07/15 04:44:33;;;;;;;;;;;;;;;17.12;54.24;101776.28;5005865;28;19968;-80
2022/07/15 04:46:58;;;;;;;;;;;;;;;17.11;54.90;101772.81;5005320;28;19936;-80
2022/07/15 04:52:08;;;;;;;;;;;;;;;16.99;55.01;101784.56;5001696;28;19940;-81
2022/07/15 04:54:33;;;;;;;;;;;;;;;17.05;55.34;101784.38;5004500;28;19948;-80
2022/07/15 04:56:58;;;;;;;;;;;;;;;17.08;54.71;101772.91;5003115;28;19933;-80
2022/07/15 04:59:24;;;;;;;;;;;;;;;17.12;54.85;101785.00;5005060;28;19971;-80
2022/07/15 05:01:49;;;;;;;;;;;;;;;17.12;54.94;101781.53;5009066;28;19933;-80
2022/07/15 05:04:14;;;;;;;;;;;;;;;17.16;54.25;101775.28;5007593;28;19968;-80
2022/07/15 05:06:40;;;;;;;;;;;;;;;17.10;54.77;101786.84;5004625;28;19960;-81
2022/07/15 05:09:05;;;;;;;;;;;;;;;17.05;54.88;101778.25;5004807;28;20349;-77
2022/07/15 05:11:30;;;;;;;;;;;;;;;17.11;55.86;101790.34;5005196;28;19925;-77
2022/07/15 05:13:56;;;;;;;;;;;;;;;17.03;56.15;101788.78;5006649;28;19925;-77
2022/07/15 05:16:21;;;;;;;;;;;;;;;17.15;56.36;101787.53;5003696;28;20013;-77
2022/07/15 05:18:46;;;;;;;;;;;;;;;17.13;56.91;101794.63;5001515;28;19921;-77
2022/07/15 05:21:11;;;;;;;;;;;;;;;17.08;56.88;101795.69;5005832;28;20450;-77
2022/07/15 05:23:37;;;;;;;;;;;;;;;17.06;56.82;101795.72;5006449;28;20353;-77
2022/07/15 05:26:02;;;;;;;;;;;;;;;17.25;56.22;101791.59;5005524;28;19965;-76
2022/07/15 05:28:28;;;;;;;;;;;;;;;17.24;56.55;101792.50;5003146;28;20392;-77
2022/07/15 05:30:53;;;;;;;;;;;;;;;17.26;56.22;101793.34;5006444;28;20444;-79
2022/07/15 05:33:18;;;;;;;;;;;;;;;17.25;56.57;101793.38;5006903;28;19922;-77
2022/07/15 05:35:44;;;;;;;;;;;;;;;17.23;56.62;101797.81;5007219;28;19925;-77
2022/07/15 05:38:09;;;;;;;;;;;;;;;17.23;56.85;101800.44;5001503;28;20037;-77
2022/07/15 05:40:35;;;;;;;;;;;;;;;17.16;56.84;101806.78;5006407;28;19943;-77
2022/07/15 05:43:00;;;;;;;;;;;;;;;17.20;56.47;101803.16;5005385;28;19925;-78
2022/07/15 05:45:25;;;;;;;;;;;;;;;17.10;57.21;101807.84;5011567;28;20427;-77
2022/07/15 05:47:51;;;;;;;;;;;;;;;17.06;57.73;101803.59;5005818;28;19937;-78
2022/07/15 05:50:17;;;;;;;;;;;;;;;17.16;57.29;101805.03;5006165;28;19953;-78
2022/07/15 05:52:42;;;;;;;;;;;;;;;17.11;57.11;101801.69;5009707;28;19933;-78
2022/07/15 05:55:07;;;;;;;;;;;;;;;17.08;57.70;101809.66;5006976;28;20414;-78
2022/07/15 05:57:33;;;;;;;;;;;;;;;17.10;57.06;101812.22;5007567;28;20384;-78
2022/07/15 05:59:58;;;;;;;;;;;;;;;17.11;56.97;101798.22;5006538;28;20646;-78
2022/07/15 06:02:23;;;;;;;;;;;;;;;17.05;56.71;101801.88;5002803;28;20566;-78
2022/07/15 06:04:49;;;;;;;;;;;;;;;17.03;57.17;101801.06;5007149;28;19947;-78
2022/07/15 06:07:14;;;;;;;;;;;;;;;17.13;56.68;101806.88;5005312;28;20016;-78
2022/07/15 06:09:39;;;;;;;;;;;;;;;17.06;57.01;101793.09;5012371;28;19945;-78
2022/07/15 06:12:05;;;;;;;;;;;;;;;17.00;56.92;101794.13;5007932;28;19929;-78
2022/07/15 06:14:30;;;;;;;;;;;;;;;16.99;56.92;101797.69;5008350;28;20520;-79
2022/07/15 06:16:58;;;;;;;;;;;;;;;17.01;57.16;101800.25;5012639;28;19925;-78
2022/07/15 06:19:24;;;;;;;;;;;;;;;17.01;57.02;101801.13;5000198;28;19922;-79
2022/07/15 06:21:49;;;;;;;;;;;;;;;17.11;56.54;101811.34;5005957;28;19924;-79
2022/07/15 06:24:14;;;;;;;;;;;;;;;17.05;56.44;101805.38;5009385;28;19983;-79
2022/07/15 06:26:40;;;;;;;;;;;;;;;17.12;56.37;101807.78;5009900;28;20025;-79
2022/07/15 06:29:05;;;;;;;;;;;;;;;16.99;56.57;101802.94;5006490;28;20423;-80
2022/07/15 06:31:30;;;;;;;;;;;;;;;17.00;54.25;101803.78;5007724;28;19926;-79
2022/07/15 06:33:58;;;;;;;;;;;;;;;17.01;54.52;101802.88;5010337;28;20690;-80
2022/07/15 06:36:24;;;;;;;;;;;;;;;17.01;54.74;101803.75;5016155;28;19941;-81
2022/07/15 06:38:50;;;;;;;;;;;;;;;17.05;55.05;101805.38;5007182;28;19921;-80
2022/07/15 06:41:15;;;;;;;;;;;;;;;16.93;55.22;101812.78;5008980;28;19928;-80
2022/07/15 06:43:42;;;;;;;;;;;;;;;17.09;55.17;101808.75;5010547;28;19932;-80
2022/07/15 06:46:08;;;;;;;;;;;;;;;17.06;54.09;101804.44;5009055;28;19922;-80
2022/07/15 06:48:33;;;;;;;;;;;;;;;17.07;54.52;101805.31;5008270;28;20282;-80
2022/07/15 06:50:58;;;;;;;;;;;;;;;17.01;54.63;101808.13;5011589;28;19941;-80
2022/07/15 06:53:25;;;;;;;;;;;;;;;16.92;55.22;101808.41;5010541;28;19922;-80
2022/07/15 06:55:50;;;;;;;;;;;;;;;16.98;54.27;101814.34;5007067;28;19992;-80
2022/07/15 06:58:17;;;;;;;;;;;;;;;17.03;54.57;101811.56;5003714;28;20492;-82
2022/07/15 07:00:42;;;;;;;;;;;;;;;16.98;54.71;101816.09;5004209;28;19979;-82
2022/07/15 07:03:07;;;;;;;;;;;;;;;16.97;53.95;101814.38;5008623;28;19925;-82
2022/07/15 07:05:33;;;;;;;;;;;;;;;17.02;55.43;101812.50;5008600;28;19929;-82
2022/07/15 07:07:58;;;;;;;;;;;;;;;17.00;55.02;101811.66;5008237;28;20013;-82
2022/07/15 07:10:25;;;;;;;;;;;;;;;17.14;55.02;101809.47;5008097;28;19925;-82
2022/07/15 07:12:51;;;;;;;;;;;;;;;17.08;54.82;101814.06;5006305;28;19963;-82
2022/07/15 07:15:17;;;;;;;;;;;;;;;17.05;53.56;101810.63;5006127;28;19956;-82
2022/07/15 07:17:43;;;;;;;;;;;;;;;17.13;52.22;101810.38;5006974;28;19921;-82
2022/07/15 07:20:08;;;;;;;;;;;;;;;17.23;51.96;101805.69;5007516;28;19928;-82
2022/07/15 07:22:33;;;;;;;;;;;;;;;17.21;52.94;101807.50;5008513;28;19933;-81
2022/07/15 07:24:59;;;;;;;;;;;;;;;17.29;51.19;101813.38;5006083;28;20530;-82
2022/07/15 07:27:25;;;;;;;;;;;;;;;17.33;50.71;101813.22;5008284;28;19943;-82
2022/07/15 07:29:50;;;;;;;;;;;;;;;17.42;51.16;101817.31;5003559;28;19928;-82
2022/07/15 07:32:15;;;;;;;;;;;;;;;17.39;48.44;101809.53;5000628;28;19925;-78
2022/07/15 07:34:41;;;;;;;;;;;;;;;17.39;48.83;101812.16;5004495;28;19973;-78
2022/07/15 07:37:06;;;;;;;;;;;;;;;17.24;49.65;101808.25;5008456;28;20030;-78
2022/07/15 07:39:31;;;;;;;;;;;;;;;17.31;49.15;101811.56;4999775;28;20422;-78
2022/07/15 07:41:57;;;;;;;;;;;;;;;17.30;48.01;101813.31;5004460;28;20348;-78
2022/07/15 07:44:22;;;;;;;;;;;;;;;17.44;47.45;101807.63;5006912;28;19967;-78
2022/07/15 07:46:48;;;;;;;;;;;;;;;17.41;48.77;101811.19;5007082;28;19948;-78
2022/07/15 07:49:13;;;;;;;;;;;;;;;17.51;49.46;101807.38;5008466;28;19953;-78
2022/07/15 07:51:40;;;;;;;;;;;;;;;17.54;47.63;101809.88;5008895;28;19936;-77
2022/07/15 07:54:06;;;;;;;;;;;;;;;17.63;46.74;101807.88;5007167;28;19932;-77
2022/07/15 07:56:31;;;;;;;;;;;;;;;17.54;47.47;101811.66;5004558;28;19926;-78
2022/07/15 07:58:57;;;;;;;;;;;;;;;17.72;45.53;101805.81;5006529;28;20321;-78
2022/07/15 08:01:22;;;;;;;;;;;;;;;17.77;45.41;101814.38;5007078;28;19925;-78
2022/07/15 08:03:47;;;;;;;;;;;;;;;17.73;44.47;101809.31;5010824;28;19932;-77
2022/07/15 08:06:12;;;;;;;;;;;;;;;17.67;45.28;101806.88;5002972;28;19940;-77
2022/07/15 08:08:38;;;;;;;;;;;;;;;17.65;45.52;101812.19;5007145;28;20363;-82
2022/07/15 08:11:04;;;;;;;;;;;;;;;17.51;46.22;101822.25;5003705;28;19929;-81
2022/07/15 08:13:29;;;;;;;;;;;;;;;17.49;48.89;101821.47;5007443;28;19976;-82
2022/07/15 08:15:56;;;;;;;;;;;;;;;17.44;50.88;101823.41;4982152;28;19987;-78
2022/07/15 08:18:22;;;;;;;;;;;;;;;17.54;48.83;101827.41;5005703;28;19909;-78
2022/07/15 08:20:47;;;;;;;;;;;;;;;17.53;48.99;101828.34;5003969;28;19959;-81
2022/07/15 08:23:14;;;;;;;;;;;;;;;17.38;47.52;101823.59;5004645;28;19925;-78
2022/07/15 08:25:39;;;;;;;;;;;;;;;17.51;47.66;101827.50;5015019;28;19930;-78
2022/07/15 08:28:06;;;;;;;;;;;;;;;17.63;46.04;101814.00;5001571;28;19980;-78
2022/07/15 08:30:33;;;;;;;;;;;;;;;17.59;46.02;101815.88;5007347;28;19926;-82
2022/07/15 08:32:58;;;;;;;;;;;;;;;17.67;45.86;101817.41;5002926;28;19929;-78
2022/07/15 08:35:24;;;;;;;;;;;;;;;17.62;43.78;101809.66;5005321;28;19980;-79
2022/07/15 08:37:50;;;;;;;;;;;;;;;17.48;46.71;101812.72;5004850;28;19932;-79
2022/07/15 08:40:15;;;;;;;;;;;;;;;17.44;46.45;101811.09;4999983;28;19929;-79
2022/07/15 08:42:45;;;;;;;;;;;;;;;17.34;47.24;101820.19;5002621;28;20016;-79
2022/07/15 08:45:11;;;;;;;;;;;;;;;17.34;46.26;101814.09;5014839;28;19925;-79
2022/07/15 08:47:39;;;;;;;;;;;;;;;17.54;45.08;101816.91;5000033;28;20326;-79
2022/07/15 08:50:05;;;;;;;;;;;;;;;17.65;43.76;101809.56;5004185;28;19948;-79
2022/07/15 08:52:33;;;;;;;;;;;;;;;17.66;44.61;101815.66;5003099;28;19930;-78
2022/07/15 08:54:59;;;;;;;;;;;;;;;17.78;43.80;101813.50;5006330;28;19952;-78
2022/07/15 08:57:25;;;;;;;;;;;;;;;17.71;43.30;101811.97;5007728;28;19925;-77
2022/07/15 08:59:53;;;;;;;;;;;;;;;17.72;43.89;101823.34;5002067;28;19930;-78
2022/07/15 09:02:19;;;;;;;;;;;;;;;17.73;42.53;101812.78;5002668;28;19922;-78
2022/07/15 09:05:03;;;;;;;;;;;;;;;17.70;42.12;101812.91;5003441;28;19991;-78
2022/07/15 09:07:28;;;;;;;;;;;;;;;17.78;40.89;101807.38;5004965;28;19925;-78
2022/07/15 09:09:53;;;;;;;;;;;;;;;17.82;39.87;101812.50;5000160;28;19948;-78
2022/07/15 09:12:19;;;;;;;;;;;;;;;17.73;40.74;101807.53;5000716;28;20631;-78
2022/07/15 09:14:45;;;;;;;;;;;;;;;17.73;40.15;101814.56;5004571;28;19921;-78
2022/07/15 09:17:10;;;;;;;;;;;;;;;17.79;39.96;101815.22;5007754;28;19930;-78
2022/07/15 09:19:59;;;;;;;;;;;;;;;17.69;40.13;101807.69;4995444;28;19925;-78
2022/07/15 09:22:25;;;;;;;;;;;;;;;17.88;39.88;101807.03;5006511;28;19929;-81
2022/07/15 09:24:51;;;;;;;;;;;;;;;17.81;40.04;101804.63;5023089;28;19913;-81
2022/07/15 09:27:32;;;;;;;;;;;;;;;17.85;39.84;101807.13;5007622;28;19910;-81
2022/07/15 09:38:25;;;;;;;;;;;;;;;18.01;39.76;101803.03;5010221;28;19983;-80
2022/07/15 09:40:50;;;;;;;;;;;;;;;18.05;40.12;101806.41;5013776;28;19921;-80
2022/07/15 09:43:16;;;;;;;;;;;;;;;18.11;41.78;101806.19;5010553;28;20016;-79
2022/07/15 09:45:41;;;;;;;;;;;;;;;18.14;41.19;101803.47;5005661;28;20336;-79
2022/07/15 09:48:07;;;;;;;;;;;;;;;18.14;42.01;101812.22;5011256;28;20384;-80
2022/07/15 09:50:34;;;;;;;;;;;;;;;18.08;47.88;101816.81;5010839;28;20012;-77
2022/07/15 09:53:00;;;;;;;;;;;;;;;18.11;41.56;101811.47;5007098;28;19929;-78
2022/07/15 09:55:26;;;;;;;;;;;;;;;18.25;47.87;101817.06;5008863;28;20016;-81
2022/07/15 09:57:51;;;;;;;;;;;;;;;18.09;39.78;101816.75;5009585;28;20020;-81
2022/07/15 10:00:17;;;;;;;;;;;;;;;18.14;41.74;101820.09;5009864;28;19925;-81
2022/07/15 10:02:42;;;;;;;;;;;;;;;18.06;41.22;101818.66;5005270;28;19945;-81
2022/07/15 10:05:07;;;;;;;;;;;;;;;18.04;41.02;101812.56;5009255;28;20315;-81
2022/07/15 10:07:33;;;;;;;;;;;;;;;18.05;41.49;101815.16;5008678;28;19945;-82
2022/07/15 10:09:59;;;;;;;;;;;;;;;18.16;47.04;101823.53;4992159;28;19960;-81
2022/07/15 10:12:26;;;;;;;;;;;;;;;18.10;47.20;101810.59;5008229;28;19941;-81
2022/07/15 10:14:52;;;;;;;;;;;;;;;18.22;45.92;101804.03;5012667;28;19932;-81
2022/07/15 10:17:20;;;;;;;;;;;;;;;18.25;39.75;101808.31;5006535;28;19929;-82
2022/07/15 10:20:04;;;;;;;;;;;;;;;18.15;39.90;101798.13;5008869;28;19925;-82
2022/07/15 10:22:42;;;;;;;;;;;;;;;18.16;40.03;101804.25;5006747;28;19930;-81
2022/07/15 10:25:26;;;;;;;;;;;;;;;18.15;40.70;101794.66;5005617;28;19925;-81
2022/07/15 10:27:57;;;;;;;;;;;;;;;18.07;41.18;101796.69;4999445;28;20036;-82
2022/07/15 10:30:24;;;;;;;;;;;;;;;18.17;41.18;101798.09;5007644;28;19959;-80
2022/07/15 10:33:10;;;;;;;;;;;;;;;18.12;41.23;101807.94;5008602;28;19933;-80
2022/07/15 10:35:36;;;;;;;;;;;;;;;18.10;41.22;101802.69;5009529;28;19969;-80
2022/07/15 10:38:20;;;;;;;;;;;;;;;18.16;41.13;101791.97;5011502;28;20548;-80
2022/07/15 10:41:04;;;;;;;;;;;;;;;18.12;41.57;101792.97;5012492;28;19921;-80
2022/07/15 10:43:40;;;;;;;;;;;;;;;18.21;41.15;101798.84;4999696;28;19933;-80
2022/07/15 10:46:32;;;;;;;;;;;;;;;18.23;42.00;101791.75;5023773;28;19921;-80
2022/07/15 10:48:57;;;;;;;;;;;;;;;18.23;42.36;101794.38;5004206;28;19921;-82
2022/07/15 10:51:34;;;;;;;;;;;;;;;18.25;42.11;101792.53;5007795;28;19928;-82
2022/07/15 10:54:00;;;;;;;;;;;;;;;18.24;41.35;101794.34;5005146;28;19957;-82
2022/07/15 10:56:27;;;;;;;;;;;;;;;18.26;40.87;101791.63;5004531;28;20027;-82
2022/07/15 10:59:15;;;;;;;;;;;;;;;18.29;41.70;101797.66;5011682;28;20303;-82
2022/07/15 11:01:44;;;;;;;;;;;;;;;18.26;41.68;101787.22;5006975;28;19952;-82
2022/07/15 11:04:12;;;;;;;;;;;;;;;18.38;41.82;101780.66;5004615;28;19930;-82
2022/07/15 11:06:56;;;;;;;;;;;;;;;18.38;41.49;101776.25;5004376;28;19925;-81
2022/07/15 11:09:42;;;;;;;;;;;;;;;18.38;41.45;101784.16;5004431;28;19925;-82
2022/07/15 11:12:07;;;;;;;;;;;;;;;18.42;41.07;101784.91;5003772;28;19999;-83
2022/07/15 11:14:52;;;;;;;;;;;;;;;18.43;41.41;101782.19;5005847;28;19925;-83
2022/07/15 11:17:19;;;;;;;;;;;;;;;18.45;40.62;101775.13;5001978;28;20424;-82
2022/07/15 11:19:49;;;;;;;;;;;;;;;18.43;40.93;101782.19;5007737;28;20456;-82
2022/07/15 11:22:15;;;;;;;;;;;;;;;18.41;40.55;101772.66;5000643;28;20305;-79
2022/07/15 11:24:41;;;;;;;;;;;;;;;18.44;40.14;101773.41;5008566;28;20571;-79
2022/07/15 11:27:06;;;;;;;;;;;;;;;18.47;40.96;101757.53;5005044;28;19934;-79
2022/07/15 11:29:45;;;;;;;;;;;;;;;18.47;42.20;101760.16;5009023;28;19922;-80
2022/07/15 11:32:11;;;;;;;;;;;;;;;18.53;41.35;101759.06;5012897;28;19925;-79
2022/07/15 11:34:41;;;;;;;;;;;;;;;18.50;41.70;101744.25;5001345;28;19951;-79
2022/07/15 11:37:06;;;;;;;;;;;;;;;18.60;41.01;101748.22;5005468;28;19975;-79
2022/07/15 11:39:32;;;;;;;;;;;;;;;18.47;39.63;101747.00;5007254;28;19961;-79
2022/07/15 11:44:45;;;;;;;;;;;;;;;18.60;40.49;101747.41;5002603;28;19936;-80
2022/07/15 11:47:11;;;;;;;;;;;;;;;18.54;40.25;101742.38;5006259;28;20016;-79
2022/07/15 11:49:40;;;;;;;;;;;;;;;18.60;39.47;101736.88;5003347;28;20306;-79
2022/07/15 11:52:06;;;;;;;;;;;;;;;18.60;40.03;101736.88;5003550;28;20440;-79
2022/07/15 11:54:34;;;;;;;;;;;;;;;18.51;41.04;101738.06;5003058;28;20384;-79
2022/07/15 11:57:02;;;;;;;;;;;;;;;18.69;41.87;101741.75;5004945;28;19930;-79
2022/07/15 11:59:28;;;;;;;;;;;;;;;18.68;43.50;101737.44;5001892;28;19925;-80
2022/07/15 12:02:03;;;;;;;;;;;;;;;18.68;39.29;101729.53;5007656;28;20281;-79
2022/07/15 12:04:28;;;;;;;;;;;;;;;18.68;39.78;101734.78;5005620;28;19922;-79
2022/07/15 12:06:54;;;;;;;;;;;;;;;18.73;39.48;101735.47;5008428;28;19928;-79
2022/07/15 12:09:19;;;;;;;;;;;;;;;18.66;38.97;101736.59;5005518;28;20302;-79
2022/07/15 12:11:45;;;;;;;;;;;;;;;18.64;39.45;101727.94;5007389;28;19925;-79
2022/07/15 12:14:11;;;;;;;;;;;;;;;18.60;39.36;101734.25;5004782;28;19921;-79
2022/07/15 12:16:37;;;;;;;;;;;;;;;18.57;39.34;101723.84;5007285;28;19972;-79
2022/07/15 12:19:09;;;;;;;;;;;;;;;18.60;40.77;101728.97;5004398;28;19930;-79
2022/07/15 12:21:38;;;;;;;;;;;;;;;18.63;40.75;101728.84;5002586;28;19922;-79
2022/07/15 12:24:08;;;;;;;;;;;;;;;18.68;39.34;101714.59;4998389;28;19922;-83
2022/07/15 12:26:41;;;;;;;;;;;;;;;18.84;39.19;101717.47;5004828;28;19926;-83
2022/07/15 12:29:08;;;;;;;;;;;;;;;18.89;38.78;101723.41;5004512;28;20384;-82
2022/07/15 12:31:34;;;;;;;;;;;;;;;18.92;38.36;101717.16;5003812;28;19934;-83
2022/07/15 12:34:00;;;;;;;;;;;;;;;18.93;38.99;101719.72;5002977;28;20003;-83
2022/07/15 12:36:27;;;;;;;;;;;;;;;18.87;43.21;101716.50;5002893;28;20008;-83
2022/07/15 12:39:09;;;;;;;;;;;;;;;18.87;39.02;101712.06;5002849;28;20376;-83
2022/07/15 12:41:35;;;;;;;;;;;;;;;18.89;40.84;101712.88;5004962;28;19925;-83
2022/07/15 12:44:02;;;;;;;;;;;;;;;18.90;38.23;101718.97;5000961;28;19925;-83
2022/07/15 12:46:43;;;;;;;;;;;;;;;18.91;38.58;101721.56;5005864;28;19968;-83